createdAt,value
2018-03-15T00:01:54.420Z,12.40
2018-03-15T00:04:33.886Z,10.00
2018-03-15T00:07:08.862Z,8.53
2018-03-15T00:09:43.201Z,15.80
2018-03-15T00:12:17.189Z,13.23
2018-03-15T00:14:51.649Z,9.53
2018-03-15T00:17:26.547Z,15.80
2018-03-15T00:20:00.942Z,10.83
2018-03-15T00:22:35.081Z,13.67
2018-03-15T00:25:10.558Z,11.73
2018-03-15T00:27:44.842Z,9.07
2018-03-15T00:30:20.038Z,9.87
2018-03-15T00:32:54.467Z,15.43
2018-03-15T00:35:29.507Z,12.40
2018-03-15T00:38:04.164Z,13.37
2018-03-15T00:40:39.797Z,11.30
2018-03-15T00:43:14.535Z,9.23
2018-03-15T00:45:48.542Z,10.53
2018-03-15T00:48:22.711Z,10.27
2018-03-15T00:50:57.157Z,10.40
2018-03-15T00:53:30.953Z,10.80
2018-03-15T00:56:04.817Z,9.00
2018-03-15T00:58:39.001Z,9.00
2018-03-15T01:01:13.579Z,9.53
2018-03-15T01:03:48.380Z,9.10
2018-03-15T01:06:22.321Z,8.70
2018-03-15T01:08:56.679Z,8.77
2018-03-15T01:11:31.991Z,8.93
2018-03-15T01:14:06.558Z,10.63
2018-03-15T01:16:41.854Z,13.90
2018-03-15T01:19:17.043Z,12.67
2018-03-15T01:21:50.874Z,12.93
2018-03-15T01:24:25.138Z,12.97
2018-03-15T01:26:59.512Z,14.23
2018-03-15T01:29:33.704Z,12.87
2018-03-15T01:32:08.794Z,14.23
2018-03-15T01:34:43.405Z,14.93
2018-03-15T01:37:18.384Z,11.80
2018-03-15T01:39:52.328Z,13.50
2018-03-15T01:42:26.058Z,13.47
2018-03-15T01:44:59.944Z,14.70
2018-03-15T01:47:34.591Z,14.30
2018-03-15T01:50:08.945Z,14.10
2018-03-15T01:52:43.506Z,14.17
2018-03-15T01:55:17.353Z,11.97
2018-03-15T01:57:51.954Z,11.50
2018-03-15T02:00:26.213Z,10.80
2018-03-15T02:03:01.513Z,11.43
2018-03-15T02:05:35.606Z,13.83
2018-03-15T02:08:09.439Z,11.90
2018-03-15T02:10:43.693Z,12.37
2018-03-15T02:13:18.779Z,12.40
2018-03-15T02:15:52.853Z,14.07
2018-03-15T02:18:26.654Z,14.03
2018-03-15T02:21:01.753Z,12.43
2018-03-15T02:23:35.614Z,12.47
2018-03-15T02:26:10.289Z,12.67
2018-03-15T02:28:44.433Z,14.47
2018-03-15T02:31:18.629Z,14.57
2018-03-15T02:33:53.134Z,14.37
2018-03-15T02:36:27.671Z,14.07
2018-03-15T02:39:01.602Z,12.10
2018-03-15T02:41:35.782Z,12.50
2018-03-15T02:44:10.382Z,12.83
2018-03-15T02:46:45.459Z,11.63
2018-03-15T02:49:20.083Z,13.97
2018-03-15T02:51:54.207Z,12.20
2018-03-15T02:54:28.639Z,12.43
2018-03-15T02:57:02.472Z,12.97
2018-03-15T02:59:36.482Z,13.20
2018-03-15T03:02:10.726Z,12.93
2018-03-15T03:04:49.231Z,15.10
2018-03-15T03:07:23.127Z,14.47
2018-03-15T03:09:57.857Z,15.03
2018-03-15T03:12:32.317Z,13.47
2018-03-15T03:15:06.747Z,13.70
2018-03-15T03:17:40.759Z,14.10
2018-03-15T03:20:14.749Z,14.00
2018-03-15T03:22:48.980Z,15.10
2018-03-15T03:25:23.500Z,15.70
2018-03-15T03:27:57.917Z,14.70
2018-03-15T03:30:33.135Z,17.40
2018-03-15T03:33:08.907Z,14.80
2018-03-15T03:35:43.542Z,14.90
2018-03-15T03:38:17.478Z,14.60
2018-03-15T03:40:51.396Z,14.13
2018-03-15T03:43:25.667Z,15.27
2018-03-15T03:46:00.977Z,15.53
2018-03-15T03:48:35.119Z,14.67
2018-03-15T03:51:09.094Z,14.07
2018-03-15T03:53:44.154Z,14.87
2018-03-15T03:56:18.065Z,15.50
2018-03-15T03:58:52.104Z,14.03
2018-03-15T04:01:25.892Z,15.17
2018-03-15T04:03:59.911Z,15.23
2018-03-15T04:06:35.236Z,15.23
2018-03-15T04:09:09.973Z,14.77
2018-03-15T04:11:43.889Z,14.87
2018-03-15T04:14:18.927Z,14.67
2018-03-15T04:16:53.498Z,14.80
2018-03-15T04:19:28.255Z,13.43
2018-03-15T04:22:02.472Z,15.23
2018-03-15T04:24:36.794Z,14.97
2018-03-15T04:27:11.893Z,14.87
2018-03-15T04:29:46.209Z,14.53
2018-03-15T04:32:19.949Z,15.63
2018-03-15T04:34:54.171Z,14.17
2018-03-15T04:37:28.541Z,15.07
2018-03-15T04:40:02.621Z,15.30
2018-03-15T04:42:37.127Z,14.73
2018-03-15T04:45:11.334Z,14.43
2018-03-15T04:47:45.973Z,15.53
2018-03-15T04:50:20.595Z,15.03
2018-03-15T04:52:54.592Z,16.53
2018-03-15T04:55:28.434Z,16.10
2018-03-15T04:58:02.327Z,15.00
2018-03-15T05:00:37.064Z,14.97
2018-03-15T05:03:11.347Z,16.00
2018-03-15T05:05:47.036Z,15.27
2018-03-15T05:08:20.828Z,14.93
2018-03-15T05:10:54.762Z,16.00
2018-03-15T05:13:28.525Z,14.73
2018-03-15T05:16:02.661Z,15.80
2018-03-15T05:18:37.941Z,14.73
2018-03-15T05:21:13.062Z,15.07
2018-03-15T05:23:47.100Z,14.67
2018-03-15T05:26:21.749Z,13.77
2018-03-15T05:28:56.080Z,14.23
2018-03-15T05:31:29.897Z,14.40
2018-03-15T05:34:03.836Z,15.40
2018-03-15T05:36:39.245Z,14.03
2018-03-15T05:39:13.481Z,15.23
2018-03-15T05:41:47.773Z,15.90
2018-03-15T05:44:23.078Z,14.37
2018-03-15T05:46:57.309Z,15.17
2018-03-15T05:49:32.005Z,15.67
2018-03-15T05:52:06.162Z,15.07
2018-03-15T05:54:40.618Z,15.30
2018-03-15T05:57:15.729Z,15.13
2018-03-15T05:59:51.018Z,16.37
2018-03-15T06:02:25.210Z,16.13
2018-03-15T06:04:59.027Z,15.20
2018-03-15T06:07:33.062Z,14.23
2018-03-15T06:10:07.709Z,15.40
2018-03-15T06:12:42.642Z,15.00
2018-03-15T06:15:17.246Z,15.13
2018-03-15T06:17:51.392Z,14.93
2018-03-15T06:20:25.387Z,14.77
2018-03-15T06:23:00.147Z,14.77
2018-03-15T06:25:33.980Z,14.43
2018-03-15T06:28:08.643Z,15.40
2018-03-15T06:30:43.660Z,16.20
2018-03-15T06:33:17.943Z,15.67
2018-03-15T06:35:52.489Z,16.90
2018-03-15T06:38:26.733Z,16.80
2018-03-15T06:41:02.241Z,18.23
2018-03-15T06:43:36.390Z,17.97
2018-03-15T06:46:10.874Z,18.03
2018-03-15T06:48:45.294Z,17.33
2018-03-15T06:51:18.952Z,21.70
2018-03-15T06:53:53.069Z,21.53
2018-03-15T06:56:27.656Z,22.40
2018-03-15T06:59:02.498Z,21.50
2018-03-15T07:01:36.522Z,18.73
2018-03-15T07:04:10.750Z,19.23
2018-03-15T07:06:45.282Z,19.20
2018-03-15T07:09:20.505Z,18.33
2018-03-15T07:11:54.810Z,18.87
2018-03-15T07:14:29.637Z,17.13
2018-03-15T07:17:03.558Z,17.00
2018-03-15T07:19:38.121Z,18.83
2018-03-15T07:22:12.331Z,19.00
2018-03-15T07:24:46.982Z,20.87
2018-03-15T07:27:21.612Z,22.37
2018-03-15T07:29:56.055Z,22.47
2018-03-15T07:32:31.365Z,21.40
2018-03-15T07:35:05.446Z,20.70
2018-03-15T07:37:39.185Z,21.03
2018-03-15T07:40:13.057Z,20.63
2018-03-15T07:42:46.713Z,20.60
2018-03-15T07:45:20.830Z,20.43
2018-03-15T07:47:56.862Z,20.97
2018-03-15T07:50:31.451Z,19.43
2018-03-15T07:53:06.953Z,20.87
2018-03-15T07:55:40.917Z,20.07
2018-03-15T07:58:14.783Z,20.47
2018-03-15T08:00:49.572Z,19.83
2018-03-15T08:03:23.263Z,19.03
2018-03-15T08:05:57.342Z,19.00
2018-03-15T08:08:32.040Z,19.03
2018-03-15T08:11:05.801Z,19.43
2018-03-15T08:13:39.552Z,21.07
2018-03-15T08:16:14.410Z,23.30
2018-03-15T08:18:49.288Z,21.23
2018-03-15T08:21:23.918Z,19.67
2018-03-15T08:23:58.322Z,18.60
2018-03-15T08:26:33.214Z,18.80
2018-03-15T08:29:07.447Z,20.17
2018-03-15T08:31:42.066Z,19.73
2018-03-15T08:34:16.217Z,18.83
2018-03-15T08:36:50.299Z,18.87
2018-03-15T08:39:24.064Z,18.90
2018-03-15T08:41:58.687Z,20.70
2018-03-15T08:44:33.007Z,18.33
2018-03-15T08:47:07.734Z,19.43
2018-03-15T08:49:41.755Z,18.03
2018-03-15T08:52:16.624Z,18.60
2018-03-15T08:54:50.858Z,18.20
2018-03-15T08:57:25.370Z,17.57
2018-03-15T08:59:59.823Z,18.23
2018-03-15T09:02:34.681Z,18.10
2018-03-15T09:05:08.772Z,16.97
2018-03-15T09:07:43.334Z,18.43
2018-03-15T09:10:17.282Z,17.67
2018-03-15T09:12:51.358Z,17.53
2018-03-15T09:15:26.018Z,18.13
2018-03-15T09:18:00.420Z,17.10
2018-03-15T09:20:34.956Z,18.87
2018-03-15T09:23:08.895Z,19.10
2018-03-15T09:25:42.673Z,17.00
2018-03-15T09:28:17.758Z,16.00
2018-03-15T09:30:52.780Z,15.97
2018-03-15T09:33:27.498Z,15.33
2018-03-15T09:36:02.814Z,15.53
2018-03-15T09:38:36.985Z,16.07
2018-03-15T09:41:10.809Z,15.10
2018-03-15T09:43:45.085Z,14.10
2018-03-15T09:46:19.628Z,14.23
2018-03-15T09:48:54.837Z,14.77
2018-03-15T09:51:29.271Z,16.07
2018-03-15T09:54:03.178Z,14.97
2018-03-15T09:56:38.004Z,14.23
2018-03-15T09:59:12.902Z,15.17
2018-03-15T10:01:46.756Z,14.33
2018-03-15T10:04:20.615Z,15.43
2018-03-15T10:06:55.249Z,15.00
2018-03-15T10:09:29.345Z,15.30
2018-03-15T10:12:03.896Z,16.37
2018-03-15T10:14:38.323Z,15.97
2018-03-15T10:17:12.943Z,15.20
2018-03-15T10:19:47.587Z,15.80
2018-03-15T10:22:21.467Z,16.20
2018-03-15T10:24:55.329Z,14.67
2018-03-15T10:27:29.206Z,15.67
2018-03-15T10:30:03.158Z,14.73
2018-03-15T10:32:36.866Z,16.37
2018-03-15T10:35:16.550Z,14.23
2018-03-15T10:37:51.441Z,14.80
2018-03-15T10:40:27.197Z,14.70
2018-03-15T10:43:02.458Z,16.80
2018-03-15T10:45:36.681Z,16.27
2018-03-15T10:48:10.516Z,16.10
2018-03-15T10:50:44.305Z,16.57
2018-03-15T10:53:18.789Z,17.33
2018-03-15T10:55:52.838Z,16.67
2018-03-15T10:58:26.681Z,16.60
2018-03-15T11:01:07.566Z,16.67
2018-03-15T11:03:47.118Z,16.67
2018-03-15T11:06:26.851Z,17.07
2018-03-15T11:09:00.910Z,18.13
2018-03-15T11:11:35.525Z,16.83
2018-03-15T11:14:10.533Z,18.67
2018-03-15T11:16:44.873Z,19.03
2018-03-15T11:19:20.105Z,18.47
2018-03-15T11:21:54.188Z,18.60
2018-03-15T11:24:27.978Z,19.00
2018-03-15T11:27:01.765Z,18.10
2018-03-15T11:29:36.449Z,18.10
2018-03-15T11:32:10.895Z,17.37
2018-03-15T11:34:45.155Z,17.20
2018-03-15T11:37:19.401Z,17.13
2018-03-15T11:39:54.150Z,17.90
2018-03-15T11:42:28.974Z,17.30
2018-03-15T11:45:03.470Z,17.10
2018-03-15T11:47:37.956Z,16.93
2018-03-15T11:50:12.502Z,18.27
2018-03-15T11:52:47.877Z,17.27
2018-03-15T11:55:22.133Z,29.63
2018-03-15T11:57:55.893Z,43.43
2018-03-15T12:00:30.397Z,20.23
2018-03-15T12:03:04.625Z,16.00
2018-03-15T12:05:38.460Z,13.00
2018-03-15T12:08:13.496Z,15.60
2018-03-15T12:10:47.155Z,12.37
2018-03-15T12:13:21.397Z,13.43
2018-03-15T12:15:55.930Z,14.17
2018-03-15T12:18:30.346Z,46.77
2018-03-15T12:21:04.817Z,44.90
2018-03-15T12:23:38.577Z,33.50
2018-03-15T12:26:12.176Z,23.63
2018-03-15T12:28:46.936Z,20.80
2018-03-15T12:31:20.751Z,13.47
2018-03-15T12:33:54.731Z,12.80
2018-03-15T12:36:28.518Z,13.80
2018-03-15T12:39:02.375Z,13.10
2018-03-15T12:41:37.065Z,10.70
2018-03-15T12:44:11.704Z,11.30
2018-03-15T12:46:45.789Z,10.73
2018-03-15T12:49:19.737Z,11.10
2018-03-15T12:51:54.274Z,12.17
2018-03-15T12:54:28.217Z,8.67
2018-03-15T12:57:02.014Z,8.83
2018-03-15T12:59:35.959Z,9.87
2018-03-15T13:02:10.329Z,10.17
2018-03-15T13:04:44.105Z,11.80
2018-03-15T13:07:18.011Z,9.40
2018-03-15T13:09:51.752Z,8.43
2018-03-15T13:12:25.729Z,7.57
2018-03-15T13:14:59.752Z,8.00
2018-03-15T13:17:33.468Z,5.97
2018-03-15T13:20:07.321Z,31.00
2018-03-15T13:22:42.024Z,23.20
2018-03-15T13:25:15.865Z,18.40
2018-03-15T13:27:49.747Z,38.93
2018-03-15T13:30:23.654Z,51.33
2018-03-15T13:32:57.678Z,36.03
2018-03-15T13:35:32.708Z,19.93
2018-03-15T13:38:07.433Z,11.03
2018-03-15T13:40:41.290Z,20.10
2018-03-15T13:43:15.150Z,20.40
2018-03-15T13:45:49.869Z,11.13
2018-03-15T13:48:23.873Z,17.30
2018-03-15T13:50:57.932Z,9.73
2018-03-15T13:53:31.597Z,10.73
2018-03-15T13:56:07.041Z,12.83
2018-03-15T13:58:41.047Z,8.37
2018-03-15T14:01:15.997Z,13.30
2018-03-15T14:03:49.740Z,7.77
2018-03-15T14:06:24.315Z,8.40
2018-03-15T14:08:58.373Z,11.10
2018-03-15T14:11:32.100Z,8.43
2018-03-15T14:14:05.904Z,9.20
2018-03-15T14:16:40.134Z,8.00
2018-03-15T14:19:13.838Z,9.03
2018-03-15T14:21:48.120Z,10.20
2018-03-15T14:24:22.646Z,13.87
2018-03-15T14:26:56.731Z,8.47
2018-03-15T14:29:30.683Z,10.00
2018-03-15T14:32:05.393Z,11.57
2018-03-15T14:34:39.247Z,7.30
2018-03-15T14:37:14.025Z,7.67
2018-03-15T14:39:47.889Z,6.90
2018-03-15T14:42:21.900Z,6.30
2018-03-15T14:44:55.689Z,7.53
2018-03-15T14:47:30.615Z,8.23
2018-03-15T14:50:04.217Z,6.80
2018-03-15T14:52:38.386Z,7.27
2018-03-15T14:55:13.093Z,7.27
2018-03-15T14:57:47.413Z,7.83
2018-03-15T15:00:21.096Z,7.43
2018-03-15T15:02:54.918Z,8.67
2018-03-15T15:05:29.468Z,7.43
2018-03-15T15:08:04.441Z,7.10
2018-03-15T15:10:39.283Z,7.03
2018-03-15T15:13:14.418Z,7.30
2018-03-15T15:15:48.898Z,6.63
2018-03-15T15:18:24.160Z,6.70
2018-03-15T15:20:59.196Z,6.20
2018-03-15T15:23:33.085Z,6.70
2018-03-15T15:26:07.609Z,7.57
2018-03-15T15:28:42.677Z,6.50
2018-03-15T15:31:18.113Z,7.10
2018-03-15T15:33:52.424Z,7.23
2018-03-15T15:36:27.064Z,8.23
2018-03-15T15:39:02.048Z,7.13
2018-03-15T15:41:35.896Z,6.70
2018-03-15T15:44:10.651Z,6.30
2018-03-15T15:46:44.533Z,6.57
2018-03-15T15:49:19.142Z,6.67
2018-03-15T15:51:54.113Z,6.87
2018-03-15T15:54:28.705Z,7.10
2018-03-15T15:57:02.734Z,6.90
2018-03-15T15:59:36.518Z,7.07
2018-03-15T16:02:10.318Z,6.30
2018-03-15T16:04:45.400Z,6.77
2018-03-15T16:07:20.680Z,7.23
2018-03-15T16:09:55.251Z,6.57
2018-03-15T16:12:29.329Z,8.60
2018-03-15T16:15:04.171Z,13.43
2018-03-15T16:17:39.486Z,9.20
2018-03-15T16:20:13.686Z,13.50
2018-03-15T16:22:48.114Z,13.93
2018-03-15T16:25:23.510Z,11.67
2018-03-15T16:27:58.053Z,8.37
2018-03-15T16:30:32.127Z,7.33
2018-03-15T16:33:06.755Z,7.13
2018-03-15T16:35:40.627Z,6.50
2018-03-15T16:38:14.351Z,7.50
2018-03-15T16:40:48.494Z,8.73
2018-03-15T16:43:22.395Z,9.20
2018-03-15T16:45:57.486Z,9.47
2018-03-15T16:48:32.926Z,7.03
2018-03-15T16:51:08.330Z,7.30
2018-03-15T16:53:42.112Z,7.37
2018-03-15T16:56:16.066Z,8.70
2018-03-15T16:58:49.930Z,8.00
2018-03-15T17:01:24.039Z,8.40
2018-03-15T17:03:59.442Z,9.03
2018-03-15T17:06:34.398Z,9.00
2018-03-15T17:09:09.119Z,8.13
2018-03-15T17:11:45.203Z,8.50
2018-03-15T17:14:19.351Z,8.67
2018-03-15T17:16:53.750Z,7.73
2018-03-15T17:19:28.622Z,9.50
2018-03-15T17:22:03.804Z,10.03
2018-03-15T17:24:38.393Z,11.13
2018-03-15T17:27:12.546Z,8.40
2018-03-15T17:29:47.782Z,6.97
2018-03-15T17:32:21.738Z,7.63
2018-03-15T17:34:55.391Z,7.80
2018-03-15T17:37:29.514Z,7.67
2018-03-15T17:40:04.914Z,7.73
2018-03-15T17:42:39.109Z,7.40
2018-03-15T17:45:13.776Z,8.30
2018-03-15T17:47:47.944Z,7.77
2018-03-15T17:50:22.966Z,8.10
2018-03-15T17:52:57.570Z,8.57
2018-03-15T17:55:32.022Z,11.47
2018-03-15T17:58:05.938Z,9.67
2018-03-15T18:00:39.661Z,11.63
2018-03-15T18:03:13.700Z,9.00
2018-03-15T18:05:47.497Z,8.50
2018-03-15T18:08:23.062Z,8.00
2018-03-15T18:10:57.127Z,8.03
2018-03-15T18:13:31.177Z,7.93
2018-03-15T18:16:06.390Z,7.20
2018-03-15T18:18:40.640Z,7.17
2018-03-15T18:21:15.894Z,8.70
2018-03-15T18:23:49.827Z,8.57
2018-03-15T18:26:23.571Z,9.07
2018-03-15T18:28:57.699Z,8.97
2018-03-15T18:31:33.047Z,8.50
2018-03-15T18:34:07.977Z,18.07
2018-03-15T18:36:41.987Z,17.13
2018-03-15T18:39:15.930Z,10.27
2018-03-15T18:41:49.743Z,9.23
2018-03-15T18:44:23.546Z,10.07
2018-03-15T18:46:57.566Z,9.17
2018-03-15T18:49:32.170Z,10.20
2018-03-15T18:52:06.041Z,9.90
2018-03-15T18:54:40.269Z,10.13
2018-03-15T18:57:15.356Z,10.90
2018-03-15T18:59:49.873Z,9.77
2018-03-15T19:02:23.534Z,8.83
2018-03-15T19:04:57.430Z,9.50
2018-03-15T19:07:31.991Z,10.17
2018-03-15T19:10:06.917Z,9.87
2018-03-15T19:12:40.809Z,9.87
2018-03-15T19:15:14.592Z,9.80
2018-03-15T19:17:48.259Z,10.20
2018-03-15T19:20:22.307Z,9.97
2018-03-15T19:22:57.002Z,10.10
2018-03-15T19:25:30.869Z,11.20
2018-03-15T19:28:05.765Z,10.93
2018-03-15T19:30:40.299Z,9.40
2018-03-15T19:33:14.327Z,9.67
2018-03-15T19:35:48.425Z,12.57
2018-03-15T19:38:22.954Z,10.40
2018-03-15T19:40:57.061Z,8.90
2018-03-15T19:43:31.637Z,8.13
2018-03-15T19:46:06.100Z,9.60
2018-03-15T19:48:40.244Z,11.90
2018-03-15T19:51:14.147Z,12.87
2018-03-15T19:53:47.850Z,13.27
2018-03-15T19:56:21.875Z,12.83
2018-03-15T19:58:57.194Z,13.87
2018-03-15T20:01:31.278Z,15.33
2018-03-15T20:04:05.009Z,14.87
2018-03-15T20:06:39.112Z,15.57
2018-03-15T20:09:13.598Z,15.13
2018-03-15T20:11:47.855Z,15.60
2018-03-15T20:14:21.703Z,16.07
2018-03-15T20:16:55.763Z,15.90
2018-03-15T20:19:30.151Z,16.70
2018-03-15T20:22:04.014Z,17.27
2018-03-15T20:24:37.758Z,16.20
2018-03-15T20:27:11.386Z,15.80
2018-03-15T20:29:45.332Z,17.07
2018-03-15T20:32:24.967Z,17.83
2018-03-15T20:34:59.544Z,18.33
2018-03-15T20:37:33.866Z,29.93
2018-03-15T20:40:14.088Z,19.63
2018-03-15T20:42:48.776Z,19.77
2018-03-15T20:45:28.311Z,17.33
2018-03-15T20:48:08.763Z,17.97
2018-03-15T20:50:43.535Z,16.53
2018-03-15T20:53:17.324Z,16.33
2018-03-15T20:55:51.903Z,15.80
2018-03-15T20:58:26.106Z,15.93
2018-03-15T21:00:59.874Z,15.80
2018-03-15T21:03:34.117Z,15.87
2018-03-15T21:06:09.440Z,16.10
2018-03-15T21:08:43.595Z,17.07
2018-03-15T21:11:18.360Z,16.27
2018-03-15T21:13:52.454Z,15.47
2018-03-15T21:16:26.349Z,16.33
2018-03-15T21:19:01.033Z,16.60
2018-03-15T21:21:35.010Z,16.30
2018-03-15T21:24:09.930Z,17.43
2018-03-15T21:26:43.843Z,16.70
2018-03-15T21:29:18.065Z,16.77
2018-03-15T21:31:51.891Z,17.10
2018-03-15T21:34:26.186Z,18.20
2018-03-15T21:37:00.751Z,17.20
2018-03-15T21:39:36.664Z,16.97
2018-03-15T21:42:11.293Z,17.93
2018-03-15T21:44:45.609Z,15.83
2018-03-15T21:47:19.255Z,15.47
2018-03-15T21:49:53.250Z,16.07
2018-03-15T21:52:27.214Z,16.77
2018-03-15T21:55:01.757Z,16.43
2018-03-15T21:57:35.996Z,16.37
2018-03-15T22:00:10.186Z,16.70
2018-03-15T22:02:44.502Z,16.23
2018-03-15T22:05:19.126Z,16.23
2018-03-15T22:07:53.464Z,15.90
2018-03-15T22:10:28.398Z,14.50
2018-03-15T22:13:02.106Z,14.57
2018-03-15T22:15:37.922Z,14.63
2018-03-15T22:18:12.471Z,15.77
2018-03-15T22:20:46.606Z,15.03
2018-03-15T22:23:21.226Z,15.60
2018-03-15T22:25:56.210Z,15.13
2018-03-15T22:28:30.064Z,13.63
2018-03-15T22:31:04.042Z,14.27
2018-03-15T22:33:37.936Z,16.70
2018-03-15T22:36:12.060Z,17.67
2018-03-15T22:38:46.475Z,15.03
2018-03-15T22:41:21.833Z,14.73
2018-03-15T22:43:56.426Z,14.77
2018-03-15T22:46:30.611Z,19.27
2018-03-15T22:49:05.122Z,16.57
2018-03-15T22:51:39.290Z,15.83
2018-03-15T22:54:13.925Z,21.63
2018-03-15T22:56:48.750Z,14.43
2018-03-15T22:59:22.761Z,20.63
2018-03-15T23:01:57.400Z,20.20
2018-03-15T23:04:31.393Z,17.60
2018-03-15T23:07:05.706Z,15.33
2018-03-15T23:09:40.175Z,21.40
2018-03-15T23:12:14.460Z,17.17
2018-03-15T23:14:49.758Z,15.90
2018-03-15T23:17:23.767Z,17.33
2018-03-15T23:19:58.335Z,15.97
2018-03-15T23:22:32.937Z,16.57
2018-03-15T23:25:08.247Z,18.70
2018-03-15T23:27:42.495Z,16.27
2018-03-15T23:30:16.137Z,20.57
2018-03-15T23:32:51.038Z,16.03
2018-03-15T23:35:25.518Z,17.40
2018-03-15T23:37:59.579Z,16.43
2018-03-15T23:40:33.659Z,16.63
2018-03-15T23:43:07.402Z,17.57
2018-03-15T23:45:42.185Z,17.10
2018-03-15T23:48:16.832Z,17.40
2018-03-15T23:50:51.213Z,19.53
2018-03-15T23:53:25.578Z,19.17
2018-03-15T23:56:00.783Z,20.40
2018-03-15T23:58:35.549Z,17.10
